sensor_id;sensor_type;location;lat;lon;timestamp;pressure;altitude;pressure_sealevel;temperature;humidity
58690;BME280;44470;53.206;-6.106;2023-04-01T00:00:18;100115.94;;;20.30;56.05
58690;BME280;44470;53.206;-6.106;2023-04-01T00:02:43;100123.03;;;20.31;55.91
58690;BME280;44470;53.206;-6.106;2023-04-01T00:05:10;100126.59;;;20.32;56.00
58690;BME280;44470;53.206;-6.106;2023-04-01T00:07:36;100128.34;;;20.33;56.21
58690;BME280;44470;53.206;-6.106;2023-04-01T00:10:03;100131.84;;;20.35;56.07
58690;BME280;44470;53.206;-6.106;2023-04-01T00:12:29;100135.47;;;20.34;55.63
58690;BME280;44470;53.206;-6.106;2023-04-01T00:14:55;100140.81;;;20.34;55.97
58690;BME280;44470;53.206;-6.106;2023-04-01T00:17:21;100137.25;;;20.33;55.69
58690;BME280;44470;53.206;-6.106;2023-04-01T00:19:47;100137.31;;;20.32;55.71
58690;BME280;44470;53.206;-6.106;2023-04-01T00:22:12;100137.31;;;20.32;55.49
58690;BME280;44470;53.206;-6.106;2023-04-01T00:24:38;100139.88;;;20.35;55.62
58690;BME280;44470;53.206;-6.106;2023-04-01T00:27:04;100135.47;;;20.34;55.86
58690;BME280;44470;53.206;-6.106;2023-04-01T00:29:30;100139.06;;;20.33;55.76
58690;BME280;44470;53.206;-6.106;2023-04-01T00:31:58;100140.81;;;20.34;56.13
58690;BME280;44470;53.206;-6.106;2023-04-01T00:34:24;100140.84;;;20.32;55.74
58690;BME280;44470;53.206;-6.106;2023-04-01T00:36:50;100144.41;;;20.33;55.55
58690;BME280;44470;53.206;-6.106;2023-04-01T00:39:18;100155.09;;;20.33;55.54
58690;BME280;44470;53.206;-6.106;2023-04-01T00:41:43;100144.41;;;20.33;56.02
58690;BME280;44470;53.206;-6.106;2023-04-01T00:44:32;100139.91;;;20.33;55.24
58690;BME280;44470;53.206;-6.106;2023-04-01T00:46:59;100140.91;;;20.31;55.85
58690;BME280;44470;53.206;-6.106;2023-04-01T00:49:28;100145.31;;;20.32;55.50
58690;BME280;44470;53.206;-6.106;2023-04-01T00:51:57;100136.56;;;20.27;55.45
58690;BME280;44470;53.206;-6.106;2023-04-01T00:54:27;100148.09;;;20.29;55.61
58690;BME280;44470;53.206;-6.106;2023-04-01T00:57:05;100144.50;;;20.30;55.98
58690;BME280;44470;53.206;-6.106;2023-04-01T00:59:43;100153.38;;;20.30;55.75
58690;BME280;44470;53.206;-6.106;2023-04-01T01:02:11;100149.84;;;20.30;55.74
58690;BME280;44470;53.206;-6.106;2023-04-01T01:04:38;100152.53;;;20.28;55.66
58690;BME280;44470;53.206;-6.106;2023-04-01T01:10:09;100159.63;;;20.29;55.57
58690;BME280;44470;53.206;-6.106;2023-04-01T01:12:50;100149.94;;;20.27;55.46
58690;BME280;44470;53.206;-6.106;2023-04-01T01:15:52;100152.53;;;20.28;55.74
58690;BME280;44470;53.206;-6.106;2023-04-01T01:18:28;100150.75;;;20.29;55.42
58690;BME280;44470;53.206;-6.106;2023-04-01T01:27:02;100150.75;;;20.29;55.67
58690;BME280;44470;53.206;-6.106;2023-04-01T01:35:36;100164.13;;;20.29;55.73
58690;BME280;44470;53.206;-6.106;2023-04-01T01:38:17;100157.03;;;20.28;55.46
58690;BME280;44470;53.206;-6.106;2023-04-01T01:40:52;100160.63;;;20.27;55.73
58690;BME280;44470;53.206;-6.106;2023-04-01T01:43:24;100160.63;;;20.27;55.37
58690;BME280;44470;53.206;-6.106;2023-04-01T01:46:00;100162.38;;;20.28;55.61
58690;BME280;44470;53.206;-6.106;2023-04-01T01:48:27;100160.63;;;20.27;55.41
58690;BME280;44470;53.206;-6.106;2023-04-01T01:50:54;100165.97;;;20.27;55.73
58690;BME280;44470;53.206;-6.106;2023-04-01T01:53:20;100169.47;;;20.29;55.23
58690;BME280;44470;53.206;-6.106;2023-04-01T01:55:47;100165.97;;;20.27;55.51
58690;BME280;44470;53.206;-6.106;2023-04-01T01:58:20;100171.41;;;20.24;55.83
58690;BME280;44470;53.206;-6.106;2023-04-01T02:00:54;100176.66;;;20.27;55.23
58690;BME280;44470;53.206;-6.106;2023-04-01T02:03:23;100172.22;;;20.26;55.79
58690;BME280;44470;53.206;-6.106;2023-04-01T02:05:53;100174.91;;;20.26;55.40
58690;BME280;44470;53.206;-6.106;2023-04-01T02:08:25;100177.59;;;20.24;55.48
58690;BME280;44470;53.206;-6.106;2023-04-01T02:11:01;100189.19;;;20.25;55.65
58690;BME280;44470;53.206;-6.106;2023-04-01T02:14:23;100183.84;;;20.25;55.68
58690;BME280;44470;53.206;-6.106;2023-04-01T02:19:29;100191.84;;;20.25;55.57
58690;BME280;44470;53.206;-6.106;2023-04-01T02:22:01;100192.69;;;20.27;55.17
58690;BME280;44470;53.206;-6.106;2023-04-01T02:24:30;100198.03;;;20.27;55.34
58690;BME280;44470;53.206;-6.106;2023-04-01T02:26:57;100202.53;;;20.25;55.48
58690;BME280;44470;53.206;-6.106;2023-04-01T02:29:24;100208.81;;;20.24;55.56
58690;BME280;44470;53.206;-6.106;2023-04-01T02:31:53;100205.22;;;20.25;54.95
58690;BME280;44470;53.206;-6.106;2023-04-01T02:34:20;100207.06;;;20.23;55.60
58690;BME280;44470;53.206;-6.106;2023-04-01T02:36:48;100210.59;;;20.23;55.19
58690;BME280;44470;53.206;-6.106;2023-04-01T02:39:14;100208.81;;;20.24;55.01
58690;BME280;44470;53.206;-6.106;2023-04-01T02:41:42;100208.81;;;20.24;55.19
58690;BME280;44470;53.206;-6.106;2023-04-01T02:44:08;100202.56;;;20.23;55.52
58690;BME280;44470;53.206;-6.106;2023-04-01T02:46:34;100216.84;;;20.24;55.29
58690;BME280;44470;53.206;-6.106;2023-04-01T02:49:00;100201.75;;;20.21;55.16
58690;BME280;44470;53.206;-6.106;2023-04-01T02:51:26;100202.56;;;20.23;55.08
58690;BME280;44470;53.206;-6.106;2023-04-01T02:53:51;100211.50;;;20.24;54.96
58690;BME280;44470;53.206;-6.106;2023-04-01T02:56:17;100204.31;;;20.24;55.28
58690;BME280;44470;53.206;-6.106;2023-04-01T02:58:43;100217.75;;;20.23;55.38
58690;BME280;44470;53.206;-6.106;2023-04-01T03:01:08;100221.25;;;20.25;55.19
58690;BME280;44470;53.206;-6.106;2023-04-01T03:03:34;100223.97;;;20.23;55.23
58690;BME280;44470;53.206;-6.106;2023-04-01T03:06:07;100227.53;;;20.22;55.42
58690;BME280;44470;53.206;-6.106;2023-04-01T03:08:33;100220.50;;;20.20;55.06
58690;BME280;44470;53.206;-6.106;2023-04-01T03:10:59;100232.88;;;20.24;55.42
58690;BME280;44470;53.206;-6.106;2023-04-01T03:13:25;100230.19;;;20.24;55.00
58690;BME280;44470;53.206;-6.106;2023-04-01T03:15:51;100238.22;;;20.24;55.17
58690;BME280;44470;53.206;-6.106;2023-04-01T03:18:16;100231.94;;;20.25;55.35
58690;BME280;44470;53.206;-6.106;2023-04-01T03:20:42;100242.72;;;20.22;55.56
58690;BME280;44470;53.206;-6.106;2023-04-01T03:23:08;100242.72;;;20.22;55.08
58690;BME280;44470;53.206;-6.106;2023-04-01T03:25:33;100237.38;;;20.22;55.24
58690;BME280;44470;53.206;-6.106;2023-04-01T03:27:59;100232.03;;;20.22;55.13
58690;BME280;44470;53.206;-6.106;2023-04-01T03:30:25;100243.63;;;20.21;55.11
58690;BME280;44470;53.206;-6.106;2023-04-01T03:32:51;100232.22;;;20.15;55.07
58690;BME280;44470;53.206;-6.106;2023-04-01T03:35:18;100249.81;;;20.23;55.27
58690;BME280;44470;53.206;-6.106;2023-04-01T03:37:44;100249.81;;;20.23;55.45
58690;BME280;44470;53.206;-6.106;2023-04-01T03:40:10;100247.16;;;20.21;55.45
58690;BME280;44470;53.206;-6.106;2023-04-01T03:42:36;100252.50;;;20.21;55.58
58690;BME280;44470;53.206;-6.106;2023-04-01T03:45:03;100254.28;;;20.22;55.27
58690;BME280;44470;53.206;-6.106;2023-04-01T03:47:29;100250.75;;;20.22;54.73
58690;BME280;44470;53.206;-6.106;2023-04-01T03:49:54;100257.84;;;20.23;55.49
58690;BME280;44470;53.206;-6.106;2023-04-01T03:52:20;100255.16;;;20.23;55.41
58690;BME280;44470;53.206;-6.106;2023-04-01T03:54:46;100257.88;;;20.21;55.35
58690;BME280;44470;53.206;-6.106;2023-04-01T03:57:12;100271.22;;;20.21;55.51
58690;BME280;44470;53.206;-6.106;2023-04-01T03:59:38;100268.59;;;20.20;55.52
58690;BME280;44470;53.206;-6.106;2023-04-01T04:02:03;100256.25;;;20.15;55.16
58690;BME280;44470;53.206;-6.106;2023-04-01T04:04:29;100267.69;;;20.21;55.29
58690;BME280;44470;53.206;-6.106;2023-04-01T04:06:56;100273.03;;;20.21;55.45
58690;BME280;44470;53.206;-6.106;2023-04-01T04:09:23;100281.06;;;20.21;55.33
58690;BME280;44470;53.206;-6.106;2023-04-01T04:11:49;100269.53;;;20.18;55.59
58690;BME280;44470;53.206;-6.106;2023-04-01T04:14:15;100278.38;;;20.21;55.45
58690;BME280;44470;53.206;-6.106;2023-04-01T04:16:41;100273.91;;;20.21;55.08
58690;BME280;44470;53.206;-6.106;2023-04-01T04:19:07;100284.59;;;20.21;55.32
58690;BME280;44470;53.206;-6.106;2023-04-01T04:21:32;100286.41;;;20.21;55.38
58690;BME280;44470;53.206;-6.106;2023-04-01T04:23:59;100284.59;;;20.21;55.27
58690;BME280;44470;53.206;-6.106;2023-04-01T04:26:26;100281.97;;;20.20;55.42
58690;BME280;44470;53.206;-6.106;2023-04-01T04:28:57;100291.75;;;20.19;55.44
58690;BME280;44470;53.206;-6.106;2023-04-01T04:31:25;100294.44;;;20.19;55.40
58690;BME280;44470;53.206;-6.106;2023-04-01T04:33:52;100300.75;;;20.16;54.91
58690;BME280;44470;53.206;-6.106;2023-04-01T04:36:19;100303.34;;;20.20;55.45
58690;BME280;44470;53.206;-6.106;2023-04-01T04:38:46;100298.88;;;20.20;55.16
58690;BME280;44470;53.206;-6.106;2023-04-01T04:41:14;100301.59;;;20.18;54.93
58690;BME280;44470;53.206;-6.106;2023-04-01T04:43:56;100311.38;;;20.20;55.01
58690;BME280;44470;53.206;-6.106;2023-04-01T04:46:23;100306.88;;;20.20;55.17
58690;BME280;44470;53.206;-6.106;2023-04-01T04:48:54;100315.88;;;20.17;55.24
58690;BME280;44470;53.206;-6.106;2023-04-01T04:51:21;100311.38;;;20.20;55.28
58690;BME280;44470;53.206;-6.106;2023-04-01T04:53:47;100318.47;;;20.19;55.33
58690;BME280;44470;53.206;-6.106;2023-04-01T04:56:13;100314.13;;;20.16;55.40
58690;BME280;44470;53.206;-6.106;2023-04-01T04:58:45;100321.22;;;20.17;55.05
58690;BME280;44470;53.206;-6.106;2023-04-01T05:01:17;100322.06;;;20.18;55.02
58690;BME280;44470;53.206;-6.106;2023-04-01T05:03:43;100333.66;;;20.18;55.49
58690;BME280;44470;53.206;-6.106;2023-04-01T05:06:12;100328.31;;;20.18;54.99
58690;BME280;44470;53.206;-6.106;2023-04-01T05:08:37;100331.91;;;20.17;54.84
58690;BME280;44470;53.206;-6.106;2023-04-01T05:11:07;100324.84;;;20.15;55.02
58690;BME280;44470;53.206;-6.106;2023-04-01T05:13:35;100328.44;;;20.14;55.42
58690;BME280;44470;53.206;-6.106;2023-04-01T05:16:01;100334.56;;;20.17;55.26
58690;BME280;44470;53.206;-6.106;2023-04-01T05:18:27;100331.97;;;20.14;55.46
58690;BME280;44470;53.206;-6.106;2023-04-01T05:20:54;100341.66;;;20.18;55.24
58690;BME280;44470;53.206;-6.106;2023-04-01T05:26:32;100348.78;;;20.18;55.03
58690;BME280;44470;53.206;-6.106;2023-04-01T05:28:57;100355.03;;;20.18;55.19
58690;BME280;44470;53.206;-6.106;2023-04-01T05:31:23;100365.72;;;20.18;55.36
58690;BME280;44470;53.206;-6.106;2023-04-01T05:33:50;100360.47;;;20.15;55.39
58690;BME280;44470;53.206;-6.106;2023-04-01T05:36:16;100373.75;;;20.17;55.08
58690;BME280;44470;53.206;-6.106;2023-04-01T05:38:42;100379.09;;;20.17;55.15
58690;BME280;44470;53.206;-6.106;2023-04-01T05:41:11;100382.66;;;20.17;55.31
58690;BME280;44470;53.206;-6.106;2023-04-01T05:43:42;100380.84;;;20.18;55.13
58690;BME280;44470;53.206;-6.106;2023-04-01T05:46:27;100387.09;;;20.18;55.12
58690;BME280;44470;53.206;-6.106;2023-04-01T05:49:03;100388.88;;;20.18;55.41
58690;BME280;44470;53.206;-6.106;2023-04-01T05:51:29;100389.78;;;20.18;55.15
58690;BME280;44470;53.206;-6.106;2023-04-01T05:53:55;100392.44;;;20.18;55.10
58690;BME280;44470;53.206;-6.106;2023-04-01T05:56:20;100398.69;;;20.17;54.73
58690;BME280;44470;53.206;-6.106;2023-04-01T05:58:54;100406.66;;;20.19;55.18
58690;BME280;44470;53.206;-6.106;2023-04-01T06:01:21;100398.75;;;20.14;55.43
58690;BME280;44470;53.206;-6.106;2023-04-01T06:03:47;100415.66;;;20.16;54.96
58690;BME280;44470;53.206;-6.106;2023-04-01T06:06:26;100424.50;;;20.18;54.87
58690;BME280;44470;53.206;-6.106;2023-04-01T06:08:57;100421.84;;;20.17;55.15
58690;BME280;44470;53.206;-6.106;2023-04-01T06:11:37;100425.38;;;20.19;54.82
58690;BME280;44470;53.206;-6.106;2023-04-01T06:32:56;100461.06;;;20.16;55.14
58690;BME280;44470;53.206;-6.106;2023-04-01T06:46:58;100483.28;;;20.18;54.99
58690;BME280;44470;53.206;-6.106;2023-04-01T06:50:00;100491.31;;;20.17;55.33
58690;BME280;44470;53.206;-6.106;2023-04-01T06:56:09;100508.25;;;20.17;54.83
58690;BME280;44470;53.206;-6.106;2023-04-01T06:58:46;100526.03;;;20.18;55.34
58690;BME280;44470;53.206;-6.106;2023-04-01T07:01:20;100528.66;;;20.20;55.00
58690;BME280;44470;53.206;-6.106;2023-04-01T07:03:51;100535.81;;;20.20;55.04
58690;BME280;44470;53.206;-6.106;2023-04-01T07:06:35;100538.50;;;20.20;54.89
58690;BME280;44470;53.206;-6.106;2023-04-01T07:09:06;100550.00;;;20.22;54.73
58690;BME280;44470;53.206;-6.106;2023-04-01T07:12:00;100554.47;;;20.21;55.25
58690;BME280;44470;53.206;-6.106;2023-04-01T07:15:22;100561.63;;;20.21;55.61
58690;BME280;44470;53.206;-6.106;2023-04-01T07:17:56;100562.63;;;20.16;54.88
58690;BME280;44470;53.206;-6.106;2023-04-01T07:20:29;100570.63;;;20.16;55.30
58690;BME280;44470;53.206;-6.106;2023-04-01T07:22:58;100584.75;;;20.22;55.06
58690;BME280;44470;53.206;-6.106;2023-04-01T07:25:51;100588.41;;;20.17;55.22
58690;BME280;44470;53.206;-6.106;2023-04-01T07:28:37;100584.75;;;20.22;54.89
58690;BME280;44470;53.206;-6.106;2023-04-01T07:39:16;100613.22;;;20.23;54.67
58690;BME280;44470;53.206;-6.106;2023-04-01T07:50:26;100632.94;;;20.18;54.59
58690;BME280;44470;53.206;-6.106;2023-04-01T08:01:59;100670.28;;;20.20;54.48
58690;BME280;44470;53.206;-6.106;2023-04-01T08:04:54;100680.91;;;20.23;54.28
58690;BME280;44470;53.206;-6.106;2023-04-01T08:08:01;100679.13;;;20.24;54.82
58690;BME280;44470;53.206;-6.106;2023-04-01T08:11:12;100689.81;;;20.24;54.63
58690;BME280;44470;53.206;-6.106;2023-04-01T08:22:51;100721.88;;;20.24;55.05
58690;BME280;44470;53.206;-6.106;2023-04-01T08:25:28;100719.16;;;20.25;54.87
58690;BME280;44470;53.206;-6.106;2023-04-01T08:28:19;100729.00;;;20.25;54.85
58690;BME280;44470;53.206;-6.106;2023-04-01T08:30:55;100733.44;;;20.24;55.17
58690;BME280;44470;53.206;-6.106;2023-04-01T08:33:26;100731.75;;;20.20;55.24
58690;BME280;44470;53.206;-6.106;2023-04-01T08:36:15;100743.22;;;20.25;55.05
58690;BME280;44470;53.206;-6.106;2023-04-01T08:38:54;100746.91;;;20.20;54.89
58690;BME280;44470;53.206;-6.106;2023-04-01T08:41:49;100755.72;;;20.25;54.62
58690;BME280;44470;53.206;-6.106;2023-04-01T08:53:12;100773.53;;;20.24;54.83
58690;BME280;44470;53.206;-6.106;2023-04-01T08:55:51;100785.97;;;20.27;54.85
58690;BME280;44470;53.206;-6.106;2023-04-01T09:01:32;100792.22;;;20.26;54.66
58690;BME280;44470;53.206;-6.106;2023-04-01T09:26:46;100845.59;;;20.29;54.98
58690;BME280;44470;53.206;-6.106;2023-04-01T09:40:52;100862.56;;;20.28;54.80
58690;BME280;44470;53.206;-6.106;2023-04-01T09:44:03;100865.22;;;20.28;54.81
58690;BME280;44470;53.206;-6.106;2023-04-01T09:52:06;100883.88;;;20.31;55.57
58690;BME280;44470;53.206;-6.106;2023-04-01T09:54:45;100884.75;;;20.31;55.75
58690;BME280;44470;53.206;-6.106;2023-04-01T10:00:36;100894.44;;;20.37;56.69
58690;BME280;44470;53.206;-6.106;2023-04-01T10:12:01;100907.75;;;20.40;57.18
58690;BME280;44470;53.206;-6.106;2023-04-01T10:22:58;100936.19;;;20.44;57.95
58690;BME280;44470;53.206;-6.106;2023-04-01T10:37:39;100972.88;;;20.36;55.86
58690;BME280;44470;53.206;-6.106;2023-04-01T10:51:50;100990.97;;;20.22;54.32
58690;BME280;44470;53.206;-6.106;2023-04-01T10:54:47;100999.78;;;20.27;54.37
58690;BME280;44470;53.206;-6.106;2023-04-01T11:00:55;101016.78;;;20.23;54.20
58690;BME280;44470;53.206;-6.106;2023-04-01T11:12:33;101028.16;;;20.34;54.45
58690;BME280;44470;53.206;-6.106;2023-04-01T11:18:03;101036.19;;;20.32;55.10
58690;BME280;44470;53.206;-6.106;2023-04-01T11:20:42;101037.94;;;20.35;54.90
58690;BME280;44470;53.206;-6.106;2023-04-01T11:26:44;101056.59;;;20.38;54.74
58690;BME280;44470;53.206;-6.106;2023-04-01T11:38:00;101070.81;;;20.40;55.34
58690;BME280;44470;53.206;-6.106;2023-04-01T11:41:20;101080.63;;;20.40;55.53
58690;BME280;44470;53.206;-6.106;2023-04-01T11:44:26;101092.22;;;20.40;55.01
58690;BME280;44470;53.206;-6.106;2023-04-01T11:52:50;101094.03;;;20.38;55.42
58690;BME280;44470;53.206;-6.106;2023-04-01T12:01:16;101099.31;;;20.43;55.31
58690;BME280;44470;53.206;-6.106;2023-04-01T12:17:39;101130.44;;;20.45;55.36
58690;BME280;44470;53.206;-6.106;2023-04-01T12:36:47;101164.19;;;20.54;55.76
58690;BME280;44470;53.206;-6.106;2023-04-01T12:48:26;101176.66;;;20.55;56.27
58690;BME280;44470;53.206;-6.106;2023-04-01T12:50:47;101186.41;;;20.58;56.00
58690;BME280;44470;53.206;-6.106;2023-04-01T12:55:55;101183.72;;;20.58;55.83
58690;BME280;44470;53.206;-6.106;2023-04-01T12:58:39;101192.66;;;20.58;56.01
58690;BME280;44470;53.206;-6.106;2023-04-01T13:01:50;101199.75;;;20.59;55.51
58690;BME280;44470;53.206;-6.106;2023-04-01T13:28:22;101237.09;;;20.66;55.92
58690;BME280;44470;53.206;-6.106;2023-04-01T13:33:36;101245.94;;;20.71;55.75
58690;BME280;44470;53.206;-6.106;2023-04-01T13:43:49;101266.44;;;20.73;55.87
58690;BME280;44470;53.206;-6.106;2023-04-01T13:49:00;101278.91;;;20.74;56.14
58690;BME280;44470;53.206;-6.106;2023-04-01T13:51:37;101279.75;;;20.76;56.13
58690;BME280;44470;53.206;-6.106;2023-04-01T14:05:39;101330.56;;;20.76;56.04
58690;BME280;44470;53.206;-6.106;2023-04-01T14:08:45;101340.38;;;20.77;55.97
58690;BME280;44470;53.206;-6.106;2023-04-01T14:14:54;101331.50;;;20.74;55.78
58690;BME280;44470;53.206;-6.106;2023-04-01T14:28:13;101355.66;;;20.69;55.52
58690;BME280;44470;53.206;-6.106;2023-04-01T14:36:04;101375.28;;;20.68;55.42
58690;BME280;44470;53.206;-6.106;2023-04-01T14:47:30;101398.44;;;20.66;55.38
58690;BME280;44470;53.206;-6.106;2023-04-01T14:50:09;101402.94;;;20.66;55.53
58690;BME280;44470;53.206;-6.106;2023-04-01T14:52:40;101400.34;;;20.59;55.27
58690;BME280;44470;53.206;-6.106;2023-04-01T14:57:58;101417.22;;;20.65;55.42
58690;BME280;44470;53.206;-6.106;2023-04-01T15:00:25;101418.97;;;20.66;55.46
58690;BME280;44470;53.206;-6.106;2023-04-01T15:02:57;101423.44;;;20.65;55.40
58690;BME280;44470;53.206;-6.106;2023-04-01T15:05:49;101420.75;;;20.65;55.70
58690;BME280;44470;53.206;-6.106;2023-04-01T15:08:21;101429.69;;;20.66;55.40
58690;BME280;44470;53.206;-6.106;2023-04-01T15:23:56;101450.16;;;20.65;55.09
58690;BME280;44470;53.206;-6.106;2023-04-01T15:32:25;101468.91;;;20.65;55.31
58690;BME280;44470;53.206;-6.106;2023-04-01T15:37:59;101478.72;;;20.63;55.45
58690;BME280;44470;53.206;-6.106;2023-04-01T15:40:56;101485.88;;;20.62;55.51
58690;BME280;44470;53.206;-6.106;2023-04-01T15:43:40;101483.22;;;20.61;55.42
58690;BME280;44470;53.206;-6.106;2023-04-01T15:46:24;101492.13;;;20.61;55.36
58690;BME280;44470;53.206;-6.106;2023-04-01T15:51:52;101502.84;;;20.60;54.93
58690;BME280;44470;53.206;-6.106;2023-04-01T16:02:30;101529.56;;;20.61;55.27
58690;BME280;44470;53.206;-6.106;2023-04-01T16:05:04;101534.97;;;20.58;54.99
58690;BME280;44470;53.206;-6.106;2023-04-01T16:13:02;101557.22;;;20.59;55.30
58690;BME280;44470;53.206;-6.106;2023-04-01T16:18:53;101551.00;;;20.57;55.03
58690;BME280;44470;53.206;-6.106;2023-04-01T16:23:57;101567.09;;;20.54;55.18
58690;BME280;44470;53.206;-6.106;2023-04-01T16:26:28;101564.41;;;20.55;55.34
58690;BME280;44470;53.206;-6.106;2023-04-01T16:29:05;101578.66;;;20.56;55.32
58690;BME280;44470;53.206;-6.106;2023-04-01T16:32:18;101580.41;;;20.57;55.07
58690;BME280;44470;53.206;-6.106;2023-04-01T16:34:34;101584.91;;;20.56;55.28
58690;BME280;44470;53.206;-6.106;2023-04-01T16:37:44;101592.94;;;20.55;55.59
58690;BME280;44470;53.206;-6.106;2023-04-01T16:43:12;101602.75;;;20.54;55.31
58690;BME280;44470;53.206;-6.106;2023-04-01T16:48:58;101615.22;;;20.54;55.63
58690;BME280;44470;53.206;-6.106;2023-04-01T16:51:32;101614.31;;;20.55;55.34
58690;BME280;44470;53.206;-6.106;2023-04-01T16:54:36;101623.25;;;20.54;55.40
58690;BME280;44470;53.206;-6.106;2023-04-01T17:04:44;101639.34;;;20.47;55.69
58690;BME280;44470;53.206;-6.106;2023-04-01T17:15:36;101673.19;;;20.52;55.71
58690;BME280;44470;53.206;-6.106;2023-04-01T17:21:00;101682.09;;;20.51;55.75
58690;BME280;44470;53.206;-6.106;2023-04-01T17:23:51;101677.66;;;20.50;55.29
58690;BME280;44470;53.206;-6.106;2023-04-01T17:29:11;101682.09;;;20.51;55.40
58690;BME280;44470;53.206;-6.106;2023-04-01T17:42:47;101710.66;;;20.45;55.04
58690;BME280;44470;53.206;-6.106;2023-04-01T17:45:28;101726.72;;;20.45;55.17
58690;BME280;44470;53.206;-6.106;2023-04-01T17:53:36;101745.44;;;20.44;55.48
58690;BME280;44470;53.206;-6.106;2023-04-01T17:58:46;101759.69;;;20.44;55.31
58690;BME280;44470;53.206;-6.106;2023-04-01T18:03:54;101774.84;;;20.45;55.03
58690;BME280;44470;53.206;-6.106;2023-04-01T18:14:59;101793.72;;;20.17;51.09
58690;BME280;44470;53.206;-6.106;2023-04-01T18:17:28;101802.59;;;20.21;52.06
58690;BME280;44470;53.206;-6.106;2023-04-01T18:25:41;101815.91;;;20.32;53.99
58690;BME280;44470;53.206;-6.106;2023-04-01T18:39:00;101858.66;;;20.38;55.08
58690;BME280;44470;53.206;-6.106;2023-04-01T18:41:53;101859.53;;;20.36;54.98
58690;BME280;44470;53.206;-6.106;2023-04-01T18:47:38;101864.88;;;20.39;55.13
58690;BME280;44470;53.206;-6.106;2023-04-01T18:52:47;101880.06;;;20.38;55.32
58690;BME280;44470;53.206;-6.106;2023-04-01T18:57:55;101881.84;;;20.36;55.76
58690;BME280;44470;53.206;-6.106;2023-04-01T19:01:15;101860.50;;;20.21;55.28
58690;BME280;44470;53.206;-6.106;2023-04-01T19:06:28;101888.09;;;20.32;55.62
58690;BME280;44470;53.206;-6.106;2023-04-01T19:09:15;101917.47;;;20.38;55.65
58690;BME280;44470;53.206;-6.106;2023-04-01T19:12:19;101907.66;;;20.39;55.66
58690;BME280;44470;53.206;-6.106;2023-04-01T19:22:49;101923.72;;;20.37;55.89
58690;BME280;44470;53.206;-6.106;2023-04-01T19:27:52;101934.41;;;20.40;56.16
58690;BME280;44470;53.206;-6.106;2023-04-01T19:36:11;101938.00;;;20.36;56.08
58690;BME280;44470;53.206;-6.106;2023-04-01T19:38:49;101943.31;;;20.38;55.99
58690;BME280;44470;53.206;-6.106;2023-04-01T19:41:23;101947.78;;;20.37;56.12
58690;BME280;44470;53.206;-6.106;2023-04-01T19:43:59;101949.56;;;20.38;56.13
58690;BME280;44470;53.206;-6.106;2023-04-01T19:46:33;101962.03;;;20.38;55.90
58690;BME280;44470;53.206;-6.106;2023-04-01T19:49:37;101962.06;;;20.36;56.12
58690;BME280;44470;53.206;-6.106;2023-04-01T19:52:17;101954.94;;;20.32;56.21
58690;BME280;44470;53.206;-6.106;2023-04-01T20:00:06;101979.00;;;20.35;56.07
58690;BME280;44470;53.206;-6.106;2023-04-01T20:02:43;101976.31;;;20.35;56.15
58690;BME280;44470;53.206;-6.106;2023-04-01T20:13:53;102003.94;;;20.34;56.24
58690;BME280;44470;53.206;-6.106;2023-04-01T20:16:59;102009.28;;;20.32;55.78
58690;BME280;44470;53.206;-6.106;2023-04-01T20:19:44;102004.84;;;20.27;55.98
58690;BME280;44470;53.206;-6.106;2023-04-01T20:27:53;102022.66;;;20.31;55.98
58690;BME280;44470;53.206;-6.106;2023-04-01T20:30:50;102030.69;;;20.31;55.70
58690;BME280;44470;53.206;-6.106;2023-04-01T20:42:19;102043.16;;;20.30;55.96
58690;BME280;44470;53.206;-6.106;2023-04-01T20:45:17;102041.38;;;20.29;55.90
58690;BME280;44470;53.206;-6.106;2023-04-01T20:50:50;102035.16;;;20.18;55.61
58690;BME280;44470;53.206;-6.106;2023-04-01T20:53:17;102058.31;;;20.30;55.94
58690;BME280;44470;53.206;-6.106;2023-04-01T21:13:31;102093.97;;;20.26;55.65
58690;BME280;44470;53.206;-6.106;2023-04-01T21:26:26;102095.75;;;20.21;55.30
58690;BME280;44470;53.206;-6.106;2023-04-01T21:31:43;102125.13;;;20.25;55.40
58690;BME280;44470;53.206;-6.106;2023-04-01T22:05:10;102165.25;;;20.27;55.97
58690;BME280;44470;53.206;-6.106;2023-04-01T22:07:47;102172.38;;;20.25;55.77
58690;BME280;44470;53.206;-6.106;2023-04-01T22:12:48;102185.75;;;20.28;56.07
58690;BME280;44470;53.206;-6.106;2023-04-01T22:20:58;102175.94;;;20.24;56.47
58690;BME280;44470;53.206;-6.106;2023-04-01T22:23:59;102190.19;;;20.30;56.96
58690;BME280;44470;53.206;-6.106;2023-04-01T22:29:36;102200.91;;;20.29;56.82
58690;BME280;44470;53.206;-6.106;2023-04-01T22:34:49;102209.81;;;20.29;57.23
58690;BME280;44470;53.206;-6.106;2023-04-01T22:40:27;102211.59;;;20.32;57.34
58690;BME280;44470;53.206;-6.106;2023-04-01T22:43:00;102219.63;;;20.32;57.90
58690;BME280;44470;53.206;-6.106;2023-04-01T22:54:15;102226.75;;;20.30;57.75
58690;BME280;44470;53.206;-6.106;2023-04-01T22:56:49;102236.53;;;20.29;57.81
58690;BME280;44470;53.206;-6.106;2023-04-01T22:59:26;102239.22;;;20.28;57.54
58690;BME280;44470;53.206;-6.106;2023-04-01T23:02:30;102244.56;;;20.28;57.34
58690;BME280;44470;53.206;-6.106;2023-04-01T23:05:00;102241.91;;;20.28;57.43
58690;BME280;44470;53.206;-6.106;2023-04-01T23:07:54;102237.44;;;20.27;57.43
58690;BME280;44470;53.206;-6.106;2023-04-01T23:12:58;102249.91;;;20.26;57.01
58690;BME280;44470;53.206;-6.106;2023-04-01T23:15:26;102252.59;;;20.25;56.87
58690;BME280;44470;53.206;-6.106;2023-04-01T23:21:07;102267.72;;;20.24;56.83
58690;BME280;44470;53.206;-6.106;2023-04-01T23:26:25;102265.06;;;20.23;56.59
58690;BME280;44470;53.206;-6.106;2023-04-01T23:28:56;102271.31;;;20.22;56.41
58690;BME280;44470;53.206;-6.106;2023-04-01T23:31:40;102273.06;;;20.21;56.50
58690;BME280;44470;53.206;-6.106;2023-04-01T23:36:50;102265.06;;;20.20;56.21
58690;BME280;44470;53.206;-6.106;2023-04-01T23:39:25;102275.75;;;20.20;56.19